Time;durP1;ratioP1;P1;durP2;ratioP2;P2;SDS_P1;SDS_P2;PMS_P1;PMS_P2;Temp;Humidity;BMP_temperature;BMP_pressure;BME280_temperature;BME280_humidity;BME280_pressure;Samples;Min_cycle;Max_cycle;Signal;HPM_P1;HPM_P2
2023/08/22 00:01:05;;;;;;;12.70;10.58;;;;;;;18.92;71.71;100586.95;1803483;79;21746;-55
2023/08/22 00:04:11;;;;;;;12.40;11.08;;;;;;;18.90;71.85;100586.31;1800337;79;21216;-55
2023/08/22 00:07:18;;;;;;;14.13;10.45;;;;;;;18.85;71.81;100588.08;1792265;79;21409;-54
2023/08/22 00:10:23;;;;;;;12.75;11.25;;;;;;;18.79;71.70;100589.81;1756701;80;21335;-55
2023/08/22 00:13:29;;;;;;;17.77;11.85;;;;;;;18.73;71.71;100589.85;1767558;80;21343;-54
2023/08/22 00:16:35;;;;;;;18.37;12.75;;;;;;;18.69;71.80;100592.25;1769834;79;21867;-55
2023/08/22 00:19:41;;;;;;;14.10;11.80;;;;;;;18.67;71.90;100581.05;1767875;80;21344;-55
2023/08/22 00:22:47;;;;;;;18.07;12.40;;;;;;;18.63;72.02;100583.41;1767762;80;21352;-54
2023/08/22 00:25:54;;;;;;;18.55;12.60;;;;;;;18.61;72.01;100586.11;1768595;79;21725;-55
2023/08/22 00:28:59;;;;;;;14.65;11.20;;;;;;;18.57;72.13;100584.30;1757097;80;21903;-54
2023/08/22 00:32:06;;;;;;;15.03;11.35;;;;;;;18.53;72.09;100586.36;1776683;79;21888;-54
2023/08/22 00:35:14;;;;;;;15.85;11.70;;;;;;;18.50;72.19;100583.52;1767781;80;21343;-54
2023/08/22 00:38:20;;;;;;;22.45;12.65;;;;;;;18.50;72.44;100579.87;1767905;80;21414;-55
2023/08/22 00:41:25;;;;;;;14.20;11.12;;;;;;;18.50;72.64;100581.27;1767640;80;21351;-55
2023/08/22 00:44:31;;;;;;;15.60;11.33;;;;;;;18.49;72.66;100575.42;1767756;80;21331;-54
2023/08/22 00:47:35;;;;;;;12.70;8.95;;;;;;;18.46;72.66;100582.77;1767443;80;21339;-55
2023/08/22 00:50:42;;;;;;;10.78;8.75;;;;;;;18.46;72.78;100582.23;1767477;80;21363;-54
2023/08/22 00:53:48;;;;;;;9.78;8.48;;;;;;;18.45;72.93;100583.33;1767876;80;21876;-54
2023/08/22 00:56:53;;;;;;;9.68;8.40;;;;;;;18.44;73.06;100577.45;1767556;80;21328;-54
2023/08/22 00:59:59;;;;;;;11.63;7.67;;;;;;;18.45;73.10;100585.23;1767944;80;21927;-55
2023/08/22 01:03:05;;;;;;;11.33;7.92;;;;;;;18.41;73.11;100569.58;1767510;80;21731;-54
2023/08/22 01:06:34;;;;;;;10.23;8.35;;;;;;;18.38;73.10;100570.02;1768084;80;21367;-55
2023/08/22 01:10:02;;;;;;;11.73;8.60;;;;;;;18.35;73.07;100562.12;1768171;80;21722;-54
2023/08/22 01:13:23;;;;;;;9.45;8.23;;;;;;;18.32;73.20;100565.86;1767545;80;21370;-55
2023/08/22 01:16:28;;;;;;;9.08;7.10;;;;;;;18.31;73.37;100565.56;1775287;80;21378;-54
2023/08/22 01:19:34;;;;;;;7.87;6.53;;;;;;;18.30;73.51;100566.09;1781512;79;21216;-54
2023/08/22 01:22:40;;;;;;;9.18;6.83;;;;;;;18.29;73.66;100564.92;1733472;82;21209;-55
2023/08/22 01:25:47;;;;;;;13.00;7.10;;;;;;;18.28;73.75;100566.87;1751181;81;21256;-54
2023/08/22 01:28:58;;;;;;;8.33;7.25;;;;;;;18.26;73.77;100563.45;1747606;81;21358;-54
2023/08/22 01:32:18;;;;;;;8.68;6.75;;;;;;;18.25;73.80;100563.13;1736784;81;21359;-54
2023/08/22 01:35:26;;;;;;;8.65;6.95;;;;;;;18.22;73.77;100566.34;1786693;79;21346;-54
2023/08/22 01:38:34;;;;;;;10.00;7.60;;;;;;;18.20;73.83;100554.65;1786709;80;21872;-54
2023/08/22 01:41:40;;;;;;;9.03;7.62;;;;;;;18.16;73.78;100554.76;1786652;79;21331;-54
2023/08/22 01:44:45;;;;;;;9.05;8.03;;;;;;;18.14;73.82;100554.12;1791103;79;21347;-56
2023/08/22 01:47:51;;;;;;;9.28;7.92;;;;;;;18.13;73.92;100555.20;1753781;82;21204;-56
2023/08/22 01:50:59;;;;;;;9.85;7.15;;;;;;;18.11;73.97;100554.56;1746840;81;21327;-56
2023/08/22 01:54:05;;;;;;;7.62;6.85;;;;;;;18.10;74.05;100552.88;1736927;82;21351;-56
2023/08/22 01:57:12;;;;;;;7.65;6.85;;;;;;;18.11;74.19;100555.12;1737080;82;21394;-56
2023/08/22 02:00:20;;;;;;;7.08;6.33;;;;;;;18.11;74.35;100554.56;1736621;82;21383;-55
2023/08/22 02:03:27;;;;;;;7.53;6.42;;;;;;;18.10;74.37;100552.88;1737641;82;21431;-54
2023/08/22 02:06:33;;;;;;;8.38;6.70;;;;;;;18.08;74.37;100545.31;1737483;82;21371;-55
2023/08/22 02:09:40;;;;;;;7.22;5.85;;;;;;;18.09;74.44;100551.19;1737656;82;21343;-54
2023/08/22 02:12:47;;;;;;;7.97;7.12;;;;;;;18.08;74.54;100549.47;1737547;82;21371;-55
2023/08/22 02:15:52;;;;;;;9.85;7.15;;;;;;;18.08;74.57;100548.61;1737243;82;21883;-55
2023/08/22 02:18:58;;;;;;;10.85;6.47;;;;;;;18.06;74.55;100546.05;1737199;82;21370;-54
2023/08/22 02:22:04;;;;;;;12.00;7.72;;;;;;;18.07;74.60;100543.62;1737512;82;21362;-54
2023/08/22 02:25:09;;;;;;;10.35;8.00;;;;;;;18.04;74.57;100538.52;1737572;82;21363;-56
2023/08/22 02:28:15;;;;;;;9.68;8.43;;;;;;;18.03;74.65;100533.20;1737480;82;21410;-55
2023/08/22 02:31:21;;;;;;;10.72;8.25;;;;;;;18.04;74.83;100541.30;1736843;82;21463;-55
2023/08/22 02:34:30;;;;;;;11.57;8.90;;;;;;;18.05;75.09;100541.59;1737540;82;21351;-55
2023/08/22 02:37:36;;;;;;;11.63;8.78;;;;;;;18.07;75.34;100547.78;1737121;82;21371;-55
2023/08/22 02:40:41;;;;;;;13.30;8.85;;;;;;;18.10;75.47;100540.94;1737316;82;21402;-55
2023/08/22 02:43:47;;;;;;;9.98;8.45;;;;;;;18.10;75.49;100536.25;1736162;82;21363;-55
2023/08/22 02:46:53;;;;;;;10.78;8.28;;;;;;;18.12;75.44;100547.11;1737413;82;21363;-56
2023/08/22 02:49:59;;;;;;;9.33;7.65;;;;;;;18.11;75.45;100543.48;1737577;82;21378;-55
2023/08/22 02:53:09;;;;;;;13.35;9.95;;;;;;;18.11;75.44;100544.86;1789718;79;21338;-54
2023/08/22 02:56:14;;;;;;;15.88;9.93;;;;;;;18.10;75.44;100548.72;1790097;79;21864;-54
2023/08/22 02:59:20;;;;;;;11.78;10.10;;;;;;;18.11;75.57;100549.58;1788096;79;21887;-54
2023/08/22 03:02:27;;;;;;;11.73;9.45;;;;;;;18.10;75.74;100552.88;1803388;78;21373;-54
2023/08/22 03:05:33;;;;;;;10.25;9.15;;;;;;;18.11;75.88;100552.34;1733954;82;21873;-54
2023/08/22 03:08:38;;;;;;;12.85;9.83;;;;;;;18.11;75.94;100547.64;1708050;82;21356;-56
2023/08/22 03:11:45;;;;;;;11.33;9.85;;;;;;;18.12;75.89;100547.97;1753048;82;21347;-55
2023/08/22 03:14:50;;;;;;;14.47;11.68;;;;;;;18.14;75.89;100545.80;1759918;81;21371;-53
2023/08/22 03:17:59;;;;;;;14.55;12.30;;;;;;;18.16;75.98;100540.05;1759510;79;21433;-53
2023/08/22 03:21:05;;;;;;;14.10;12.25;;;;;;;18.18;76.00;100538.77;1768614;81;21349;-53
2023/08/22 03:24:13;;;;;;;15.38;12.07;;;;;;;18.21;76.03;100534.16;1768244;79;21363;-53
2023/08/22 03:27:19;;;;;;;14.90;12.65;;;;;;;18.27;76.07;100529.12;1750884;81;21240;-53
2023/08/22 03:30:26;;;;;;;16.23;13.22;;;;;;;18.32;76.18;100527.92;1737284;82;21351;-53
2023/08/22 03:33:35;;;;;;;15.93;12.47;;;;;;;18.38;76.37;100528.44;1737322;81;21837;-53
2023/08/22 03:36:41;;;;;;;15.55;13.22;;;;;;;18.45;76.52;100523.72;1737230;82;21355;-55
2023/08/22 03:39:48;;;;;;;15.95;14.00;;;;;;;18.52;76.62;100522.29;1738102;81;21939;-55
2023/08/22 03:42:54;;;;;;;20.80;14.87;;;;;;;18.57;76.67;100519.14;1737254;81;21351;-55
2023/08/22 03:46:02;;;;;;;20.65;15.00;;;;;;;18.63;76.71;100522.95;1728954;81;21339;-55
2023/08/22 03:49:09;;;;;;;29.82;20.12;;;;;;;18.68;76.78;100515.64;1742550;81;21351;-54
2023/08/22 03:52:15;;;;;;;27.13;18.57;;;;;;;18.74;76.85;100511.14;1774203;79;21430;-56
2023/08/22 03:55:22;;;;;;;24.52;16.62;;;;;;;18.80;76.93;100517.16;1753483;82;21395;-55
2023/08/22 03:58:28;;;;;;;21.73;15.58;;;;;;;18.88;76.97;100526.06;1753551;82;21360;-54
2023/08/22 04:01:34;;;;;;;22.52;15.80;;;;;;;18.93;77.01;100523.44;1753541;82;21389;-54
2023/08/22 04:04:39;;;;;;;19.50;15.45;;;;;;;19.01;77.07;100530.09;1771617;80;21362;-54
2023/08/22 04:07:47;;;;;;;21.10;15.48;;;;;;;19.07;77.09;100527.81;1736302;82;21747;-55
2023/08/22 04:10:54;;;;;;;16.23;14.15;;;;;;;19.16;77.17;100526.97;1749336;81;21207;-55
2023/08/22 04:14:00;;;;;;;22.10;16.02;;;;;;;19.24;77.14;100522.52;1777136;80;21767;-54
2023/08/22 04:17:07;;;;;;;16.12;14.43;;;;;;;19.31;77.19;100518.63;1768547;81;21239;-53
2023/08/22 04:20:19;;;;;;;17.73;15.30;;;;;;;19.43;77.33;100516.47;1776922;80;21192;-54
2023/08/22 04:23:25;;;;;;;17.95;15.00;;;;;;;19.55;77.38;100506.33;1767909;81;21196;-54
2023/08/22 04:26:30;;;;;;;17.45;14.03;;;;;;;19.67;77.45;100499.76;1776318;80;21199;-53
2023/08/22 04:29:36;;;;;;;16.75;14.95;;;;;;;19.79;77.50;100498.45;1768122;81;21207;-54
2023/08/22 04:32:41;;;;;;;15.65;13.93;;;;;;;19.89;77.56;100496.81;1776478;80;21200;-50
2023/08/22 04:35:46;;;;;;;17.98;13.60;;;;;;;20.06;77.64;100503.98;1768073;80;21968;-52
2023/08/22 04:38:53;;;;;;;24.07;13.60;;;;;;;20.18;77.69;100494.64;1766315;80;21224;-52
2023/08/22 04:41:59;;;;;;;15.18;13.53;;;;;;;20.30;77.75;100487.71;1733443;81;21334;-50
2023/08/22 04:45:07;;;;;;;15.23;12.90;;;;;;;20.42;77.85;100485.27;1745900;80;21211;-51
2023/08/22 04:48:13;;;;;;;15.78;14.05;;;;;;;20.51;77.86;100489.96;1744843;82;21271;-50
2023/08/22 04:51:18;;;;;;;16.50;13.32;;;;;;;20.58;77.89;100490.16;1737956;80;21200;-52
2023/08/22 04:54:26;;;;;;;17.57;14.30;;;;;;;20.67;77.95;100485.11;1787729;79;21749;-53
2023/08/22 04:57:32;;;;;;;15.25;13.62;;;;;;;20.76;77.94;100487.84;1787004;79;21401;-50
2023/08/22 05:00:39;;;;;;;16.37;13.43;;;;;;;20.84;78.00;100480.53;1769090;80;21876;-50
2023/08/22 05:03:43;;;;;;;17.82;13.98;;;;;;;20.89;78.01;100474.23;1768096;80;21935;-53
2023/08/22 05:06:48;;;;;;;15.75;14.15;;;;;;;20.91;77.94;100470.15;1767162;81;21185;-49
2023/08/22 05:09:54;;;;;;;29.87;20.88;;;;;;;20.94;77.97;100469.66;1767774;81;21355;-49
2023/08/22 05:13:00;;;;;;;18.98;13.70;;;;;;;20.99;78.05;100468.43;1781949;79;21208;-51
2023/08/22 05:16:07;;;;;;;17.57;14.53;;;;;;;21.09;78.17;100466.44;1787285;79;21749;-49
2023/08/22 05:19:14;;;;;;;15.75;13.65;;;;;;;21.19;78.21;100460.55;1767262;81;21856;-50
2023/08/22 05:22:19;;;;;;;15.50;13.78;;;;;;;21.27;78.23;100454.62;1768313;79;21315;-51
2023/08/22 05:25:24;;;;;;;13.93;12.40;;;;;;;21.39;78.33;100458.22;1757671;80;21915;-50
2023/08/22 05:28:34;;;;;;;13.90;12.47;;;;;;;21.49;78.39;100443.67;1767345;80;21339;-50
2023/08/22 05:31:40;;;;;;;13.10;11.68;;;;;;;21.61;78.44;100442.55;1768499;79;21382;-51
2023/08/22 05:34:47;;;;;;;13.68;11.15;;;;;;;21.76;78.52;100449.89;1768362;79;21363;-50
2023/08/22 05:37:52;;;;;;;13.40;11.33;;;;;;;21.87;78.49;100440.64;1761549;80;21344;-52
2023/08/22 05:40:59;;;;;;;13.18;10.78;;;;;;;21.94;78.45;100440.50;1764189;81;21853;-50
2023/08/22 05:44:04;;;;;;;14.23;12.73;;;;;;;22.02;78.48;100431.17;1752518;81;21344;-50
2023/08/22 05:47:11;;;;;;;12.93;11.40;;;;;;;22.14;78.58;100438.09;1768034;79;21184;-50
2023/08/22 05:50:18;;;;;;;12.23;10.93;;;;;;;22.28;78.55;100431.69;1732789;81;22281;-50
2023/08/22 05:53:24;;;;;;;13.40;11.22;;;;;;;22.36;78.49;100432.67;1763179;80;21394;-50
2023/08/22 05:56:30;;;;;;;13.30;11.90;;;;;;;22.42;78.43;100427.48;1772244;80;21457;-51
2023/08/22 05:59:35;;;;;;;12.43;10.38;;;;;;;22.42;78.36;100422.72;1736864;81;21863;-51
2023/08/22 06:02:41;;;;;;;12.10;10.65;;;;;;;22.44;78.37;100426.11;1768574;79;21215;-50
2023/08/22 06:05:48;;;;;;;13.05;10.08;;;;;;;22.47;78.38;100428.39;1766410;79;21207;-50
2023/08/22 06:08:54;;;;;;;11.88;10.18;;;;;;;22.53;78.38;100434.42;1775114;79;21876;-50
2023/08/22 06:12:01;;;;;;;11.25;10.05;;;;;;;22.58;78.46;100426.68;1777584;80;21422;-51
2023/08/22 06:15:08;;;;;;;11.70;10.18;;;;;;;22.66;78.44;100429.87;1776487;80;21335;-51
2023/08/22 06:18:13;;;;;;;54.55;25.72;;;;;;;22.72;78.46;100422.45;1763544;80;21188;-50
2023/08/22 06:21:21;;;;;;;9.95;8.90;;;;;;;22.79;78.46;100425.90;1763863;80;21890;-51
2023/08/22 06:24:27;;;;;;;9.55;8.08;;;;;;;22.86;78.47;100429.38;1709908;82;22445;-49
2023/08/22 06:27:33;;;;;;;11.35;9.18;;;;;;;22.95;78.50;100433.42;1743710;81;21411;-50
2023/08/22 06:30:42;;;;;;;11.35;9.85;;;;;;;23.03;78.46;100429.66;1746440;82;21367;-51
2023/08/22 06:33:57;;;;;;;12.13;9.40;;;;;;;23.10;78.49;100427.52;1741779;82;21853;-54
2023/08/22 06:37:05;;;;;;;11.45;9.35;;;;;;;23.17;78.43;100424.55;1760419;81;21235;-53
2023/08/22 06:40:13;;;;;;;18.42;12.50;;;;;;;23.24;78.41;100434.46;1727688;81;21240;-54
2023/08/22 06:43:22;;;;;;;10.68;9.55;;;;;;;23.34;78.42;100435.19;1746888;80;21231;-55
2023/08/22 06:46:29;;;;;;;11.18;9.78;;;;;;;23.44;78.48;100428.33;1767851;80;21388;-54
2023/08/22 06:49:34;;;;;;;10.72;9.53;;;;;;;23.54;78.54;100436.31;1761450;80;21748;-54
2023/08/22 06:52:40;;;;;;;10.90;9.75;;;;;;;23.67;78.62;100439.28;1760162;80;22132;-54
2023/08/22 06:55:47;;;;;;;12.28;9.40;;;;;;;23.81;78.65;100431.33;1769933;80;21753;-54
2023/08/22 06:58:52;;;;;;;15.50;10.20;;;;;;;23.94;78.62;100431.80;1766718;79;21192;-52
2023/08/22 07:01:58;;;;;;;11.73;10.25;;;;;;;24.06;78.63;100430.26;1678513;83;21207;-54
2023/08/22 07:05:04;;;;;;;16.87;10.55;;;;;;;24.19;78.59;100426.51;1739240;82;21354;-53
2023/08/22 07:08:10;;;;;;;11.73;10.30;;;;;;;24.38;78.63;100425.58;1730517;82;21731;-54
2023/08/22 07:11:15;;;;;;;13.10;10.78;;;;;;;24.58;78.61;100418.75;1685301;83;21212;-55
2023/08/22 07:14:20;;;;;;;15.20;11.53;;;;;;;24.75;78.50;100411.13;1724140;81;21259;-54
2023/08/22 07:17:27;;;;;;;12.40;11.10;;;;;;;24.89;78.31;100410.37;1721360;82;21568;-54
2023/08/22 07:20:33;;;;;;;15.18;10.95;;;;;;;24.99;78.15;100409.05;1713412;81;21193;-53
2023/08/22 07:23:40;;;;;;;15.15;11.25;;;;;;;25.09;78.04;100401.27;1720971;81;21275;-55
2023/08/22 07:26:47;;;;;;;16.60;13.62;;;;;;;25.19;77.91;100394.89;1743014;82;21859;-54
2023/08/22 07:29:54;;;;;;;14.70;13.18;;;;;;;25.28;77.80;100398.31;1701266;83;21443;-55
2023/08/22 07:33:01;;;;;;;16.40;12.98;;;;;;;25.39;77.74;100395.03;1729431;81;21751;-54
2023/08/22 07:36:08;;;;;;;15.68;12.65;;;;;;;25.49;77.72;100395.09;1742146;81;21341;-53
2023/08/22 07:39:16;;;;;;;20.30;14.50;;;;;;;25.64;77.72;100389.56;1767315;80;21223;-53
2023/08/22 07:42:25;;;;;;;14.90;13.35;;;;;;;25.82;77.66;100399.73;1767280;80;21586;-55
2023/08/22 07:45:33;;;;;;;15.40;13.60;;;;;;;25.93;77.43;100383.77;1770954;79;21263;-54
2023/08/22 07:48:40;;;;;;;13.68;12.28;;;;;;;26.10;77.37;100383.02;1751674;80;21817;-55
2023/08/22 07:51:48;;;;;;;13.62;12.23;;;;;;;26.19;77.08;100392.02;1729315;80;21248;-55
2023/08/22 07:54:55;;;;;;;14.15;12.15;;;;;;;26.17;76.61;100389.19;1767850;80;21203;-54
2023/08/22 07:58:02;;;;;;;13.78;12.33;;;;;;;26.11;76.29;100387.50;1769133;80;21229;-53
2023/08/22 08:01:09;;;;;;;13.10;11.80;;;;;;;26.17;76.28;100394.80;1750766;80;21796;-53
2023/08/22 08:04:16;;;;;;;15.05;11.45;;;;;;;26.23;76.24;100393.69;1800594;79;21349;-51
2023/08/22 08:07:25;;;;;;;12.20;10.70;;;;;;;26.35;76.21;100388.67;1778455;80;21743;-53
2023/08/22 08:10:32;;;;;;;12.55;10.78;;;;;;;26.50;76.03;100389.25;1794207;78;21184;-53
2023/08/22 08:13:38;;;;;;;11.48;9.88;;;;;;;26.64;75.67;100401.06;1787129;78;21212;-55
2023/08/22 08:16:46;;;;;;;11.97;10.05;;;;;;;26.73;75.33;100398.55;1784449;79;21200;-50
2023/08/22 08:19:50;;;;;;;10.80;9.70;;;;;;;26.81;75.11;100391.81;1767032;79;21200;-52
2023/08/22 08:22:57;;;;;;;12.07;10.75;;;;;;;26.89;74.85;100388.44;1794058;79;21197;-55
2023/08/22 08:26:06;;;;;;;13.03;10.32;;;;;;;26.94;74.56;100391.21;1762582;81;21259;-53
2023/08/22 08:29:12;;;;;;;13.10;11.73;;;;;;;26.99;74.28;100391.21;1762281;80;21940;-55
2023/08/22 08:32:19;;;;;;;11.88;9.73;;;;;;;27.03;74.17;100390.09;1754959;80;21221;-54
2023/08/22 08:35:26;;;;;;;13.83;8.88;;;;;;;27.03;73.85;100391.50;1757968;79;21260;-54
2023/08/22 08:38:31;;;;;;;12.05;8.83;;;;;;;26.90;73.38;100394.33;1742227;81;21252;-52
2023/08/22 08:41:40;;;;;;;15.53;9.00;;;;;;;26.75;72.94;100403.33;1744770;80;21221;-55
2023/08/22 08:44:45;;;;;;;14.40;9.30;;;;;;;26.64;72.72;100405.27;1753979;81;21189;-52
2023/08/22 08:47:52;;;;;;;12.82;9.40;;;;;;;26.58;72.68;100410.58;1741730;81;21255;-54
2023/08/22 08:50:57;;;;;;;12.07;8.75;;;;;;;26.58;72.58;100403.56;1767901;79;21359;-56
2023/08/22 08:54:04;;;;;;;13.60;9.65;;;;;;;26.58;72.35;100406.37;1759667;80;21224;-55
2023/08/22 08:57:11;;;;;;;9.75;8.83;;;;;;;26.65;72.25;100415.41;1792336;79;21188;-55
2023/08/22 09:00:17;;;;;;;13.35;9.25;;;;;;;26.75;72.08;100412.58;1746647;80;21739;-55
2023/08/22 09:03:22;;;;;;;13.98;10.08;;;;;;;26.83;71.84;100412.59;1752632;79;22086;-56
2023/08/22 09:06:29;;;;;;;12.33;10.20;;;;;;;26.74;71.35;100412.31;1771549;79;21327;-57
2023/08/22 09:09:37;;;;;;;12.98;9.03;;;;;;;26.65;71.08;100415.41;1769571;80;21671;-56
2023/08/22 09:12:44;;;;;;;10.68;8.95;;;;;;;26.61;70.82;100426.05;1754148;80;21502;-56
2023/08/22 09:15:51;;;;;;;9.90;7.40;;;;;;;26.56;70.63;100432.48;1773531;80;21305;-58
2023/08/22 09:18:56;;;;;;;8.23;7.05;;;;;;;26.58;70.41;100434.45;1756161;81;21216;-56
2023/08/22 09:22:06;;;;;;;9.93;7.58;;;;;;;26.55;69.98;100433.61;1776570;80;21382;-57
2023/08/22 09:25:11;;;;;;;10.13;6.90;;;;;;;26.58;69.78;100424.63;1775636;80;21315;-57
2023/08/22 09:28:19;;;;;;;8.25;6.60;;;;;;;26.72;69.70;100434.21;1753848;80;21209;-56
2023/08/22 09:31:32;;;;;;;8.03;6.53;;;;;;;26.81;69.35;100429.74;1744761;82;21260;-56
2023/08/22 09:34:37;;;;;;;9.13;7.45;;;;;;;26.89;69.02;100430.58;1738994;82;21625;-55
2023/08/22 09:37:44;;;;;;;10.20;6.62;;;;;;;26.99;68.76;100443.20;1753829;79;21283;-54
2023/08/22 09:41:01;;;;;;;7.78;5.75;;;;;;;27.01;68.43;100442.37;1746404;81;21934;-56
2023/08/22 09:44:06;;;;;;;7.45;5.60;;;;;;;26.98;67.88;100445.75;1745396;82;21212;-53
2023/08/22 09:47:11;;;;;;;6.62;4.92;;;;;;;26.94;67.59;100435.36;1746465;82;21390;-53
2023/08/22 09:50:18;;;;;;;12.88;5.60;;;;;;;27.01;67.37;100435.34;1747154;82;21358;-54
2023/08/22 09:53:23;;;;;;;8.65;4.97;;;;;;;27.07;67.02;100441.78;1737526;80;21797;-55
2023/08/22 09:56:30;;;;;;;7.67;4.65;;;;;;;27.10;66.62;100447.69;1759554;81;21920;-55
2023/08/22 09:59:38;;;;;;;6.83;4.17;;;;;;;27.03;66.11;100458.95;1761237;80;21212;-55
2023/08/22 10:02:45;;;;;;;9.40;4.70;;;;;;;26.89;65.56;100455.02;1761029;79;21208;-54
2023/08/22 10:05:53;;;;;;;7.95;4.65;;;;;;;26.73;65.18;100447.16;1762461;81;21327;-54
2023/08/22 10:09:07;;;;;;;6.45;4.72;;;;;;;26.68;65.02;100445.74;1758899;81;21188;-54
2023/08/22 10:12:10;;;;;;;8.23;4.80;;;;;;;26.73;64.85;100438.73;1755442;81;21989;-55
2023/08/22 10:15:08;;;;;;;6.22;4.22;;;;;;;26.83;64.67;100423.25;1730580;82;21713;-56
2023/08/22 10:18:01;;;;;;;8.43;4.58;;;;;;;26.88;64.33;100432.27;1785914;78;21232;-55
2023/08/22 10:20:48;;;;;;;4.67;3.90;;;;;;;26.84;63.86;100420.75;1750718;79;21177;-55
2023/08/22 10:24:05;;;;;;;6.37;4.05;;;;;;;26.83;63.58;100436.48;1749671;80;21216;-54
2023/08/22 10:27:02;;;;;;;5.17;4.03;;;;;;;26.77;63.24;100432.81;1742412;80;21166;-52
2023/08/22 10:30:24;;;;;;;7.28;4.10;;;;;;;26.65;62.84;100431.41;1764690;81;21259;-53
2023/08/22 10:33:36;;;;;;;6.50;3.70;;;;;;;26.58;62.65;100440.63;1760951;80;21220;-48
2023/08/22 10:36:41;;;;;;;9.00;3.58;;;;;;;26.70;62.53;100436.48;1749080;81;22064;-50
2023/08/22 10:39:49;;;;;;;5.55;3.08;;;;;;;26.85;62.22;100438.42;1764834;79;21196;-49
2023/08/22 10:43:01;;;;;;;6.50;2.80;;;;;;;26.85;61.78;100442.09;1754657;80;21216;-48
2023/08/22 10:46:08;;;;;;;6.80;3.35;;;;;;;26.79;61.37;100426.36;1754605;80;21825;-49
2023/08/22 10:49:15;;;;;;;5.45;3.30;;;;;;;26.72;61.05;100415.95;1775261;80;21240;-49
2023/08/22 10:52:20;;;;;;;3.40;2.83;;;;;;;26.84;60.94;100417.08;1773545;79;21243;-51
2023/08/22 10:55:27;;;;;;;5.87;3.20;;;;;;;27.15;60.90;100413.11;1767272;80;21753;-50
2023/08/22 10:58:47;;;;;;;7.67;3.17;;;;;;;27.49;60.61;100415.61;1740623;80;21200;-51
2023/08/22 11:01:53;;;;;;;8.78;3.35;;;;;;;27.52;59.88;100415.88;1760497;77;21260;-47
2023/08/22 11:04:59;;;;;;;6.75;2.90;;;;;;;27.48;59.45;100411.13;1745120;81;21782;-50
2023/08/22 11:08:05;;;;;;;4.95;2.98;;;;;;;27.48;59.08;100419.56;1759737;80;21335;-49
2023/08/22 11:11:11;;;;;;;8.70;2.58;;;;;;;27.36;58.54;100415.64;1763786;79;21173;-51
2023/08/22 11:14:18;;;;;;;6.25;2.98;;;;;;;27.46;58.43;100408.56;1778758;79;21271;-50
2023/08/22 11:17:26;;;;;;;6.10;2.40;;;;;;;27.74;58.40;100412.14;1781422;79;21217;-49
2023/08/22 11:20:34;;;;;;;4.22;2.45;;;;;;;28.01;58.07;100420.20;1769576;79;21769;-50
2023/08/22 11:23:42;;;;;;;5.62;2.85;;;;;;;28.11;57.54;100410.30;1755438;80;21252;-49
2023/08/22 11:26:49;;;;;;;6.35;2.55;;;;;;;28.27;57.25;100409.09;1768756;80;21741;-51
2023/08/22 11:29:58;;;;;;;4.10;2.37;;;;;;;28.39;56.76;100419.97;1751516;79;21272;-53
2023/08/22 11:33:06;;;;;;;6.20;2.65;;;;;;;28.57;55.56;100430.59;1739284;79;21255;-55
2023/08/22 11:36:11;;;;;;;4.87;2.50;;;;;;;28.44;55.10;100424.16;1734910;82;21208;-55
2023/08/22 11:39:16;;;;;;;6.22;2.60;;;;;;;28.44;55.10;100424.16;1796277;79;21592;-55
2023/08/22 11:42:25;;;;;;;3.90;2.80;;;;;;;28.12;54.11;100420.98;1797343;79;21200;-55
2023/08/22 11:45:31;;;;;;;4.10;2.60;;;;;;;28.12;54.11;100420.98;1791181;79;21232;-55
2023/08/22 11:48:37;;;;;;;6.78;2.60;;;;;;;27.93;53.72;100419.95;1737070;80;21811;-55
2023/08/22 11:51:43;;;;;;;5.95;3.45;;;;;;;27.58;53.42;100434.98;1811814;78;21825;-53
2023/08/22 11:54:54;;;;;;;4.67;2.87;;;;;;;27.58;53.42;100434.98;1808023;77;21197;-53
2023/08/22 11:58:06;;;;;;;7.35;2.75;;;;;;;27.39;53.04;100427.73;1777487;79;21259;-53
2023/08/22 12:01:12;;;;;;;7.95;3.30;;;;;;;27.42;53.24;100425.75;1788779;79;21852;-54
2023/08/22 12:04:22;;;;;;;4.03;2.70;;;;;;;27.53;53.18;100425.14;1746493;80;21189;-52
2023/08/22 12:07:30;;;;;;;3.77;2.85;;;;;;;27.58;52.99;100416.14;1750921;81;21720;-54
2023/08/22 12:10:50;;;;;;;4.05;2.80;;;;;;;27.48;52.61;100427.41;1758591;80;21224;-54
2023/08/22 12:13:54;;;;;;;4.95;2.90;;;;;;;27.40;52.43;100432.20;1744449;81;21194;-54
2023/08/22 12:17:00;;;;;;;7.37;3.30;;;;;;;27.21;52.10;100431.09;1757617;80;21691;-54
2023/08/22 12:20:07;;;;;;;4.65;2.67;;;;;;;27.02;51.94;100437.02;1759692;81;21176;-51
2023/08/22 12:23:14;;;;;;;5.10;2.65;;;;;;;26.90;51.83;100431.41;1741020;81;21168;-55
2023/08/22 12:26:21;;;;;;;6.12;3.45;;;;;;;26.77;51.64;100428.60;1749148;81;21586;-56
2023/08/22 12:29:27;;;;;;;9.65;2.70;;;;;;;26.72;51.61;100434.21;1762259;80;21705;-55
2023/08/22 12:32:33;;;;;;;8.63;2.50;;;;;;;26.67;51.44;100443.22;1752367;81;21137;-56
2023/08/22 12:35:43;;;;;;;4.90;2.27;;;;;;;26.65;51.40;100436.47;1748920;81;21747;-55
2023/08/22 12:38:50;;;;;;;5.47;2.80;;;;;;;26.71;51.34;100432.54;1752207;81;21196;-54
2023/08/22 12:41:58;;;;;;;3.60;1.90;;;;;;;26.71;51.10;100435.34;1760447;81;21719;-54
2023/08/22 12:45:04;;;;;;;4.10;2.00;;;;;;;26.75;50.96;100433.65;1768367;80;21264;-54
2023/08/22 12:48:12;;;;;;;6.75;2.20;;;;;;;26.87;50.80;100437.59;1755625;81;21262;-56
2023/08/22 12:51:19;;;;;;;3.00;1.70;;;;;;;27.00;50.65;100432.81;1763016;80;21772;-54
2023/08/22 12:54:26;;;;;;;5.45;1.82;;;;;;;27.08;50.47;100431.70;1750600;81;21381;-50
2023/08/22 12:57:33;;;;;;;3.30;1.70;;;;;;;27.19;50.25;100447.98;1749930;81;21251;-57
2023/08/22 13:00:37;;;;;;;5.60;1.77;;;;;;;27.25;49.98;100434.19;1739425;81;21335;-56
2023/08/22 13:03:44;;;;;;;4.47;1.90;;;;;;;27.30;49.70;100439.28;1768608;79;21466;-58
2023/08/22 13:06:52;;;;;;;4.05;2.12;;;;;;;27.29;49.44;100440.39;1800835;79;21362;-58
2023/08/22 13:09:57;;;;;;;4.67;1.87;;;;;;;27.29;49.22;100449.41;1767795;80;21196;-55
2023/08/22 13:13:06;;;;;;;5.53;1.82;;;;;;;27.26;48.92;100449.39;1763769;79;21366;-59
2023/08/22 13:16:12;;;;;;;3.33;1.65;;;;;;;27.19;48.56;100447.42;1765766;79;21363;-59
2023/08/22 13:19:20;;;;;;;4.83;1.72;;;;;;;27.19;48.40;100434.77;1736384;80;21386;-59
2023/08/22 13:22:28;;;;;;;2.67;1.62;;;;;;;27.26;48.21;100434.45;1757308;80;21220;-58
2023/08/22 13:25:36;;;;;;;6.35;2.15;;;;;;;27.22;47.92;100437.02;1758352;79;21220;-57
2023/08/22 13:28:41;;;;;;;5.30;2.10;;;;;;;27.18;47.74;100426.04;1746714;80;21276;-57
2023/08/22 13:31:47;;;;;;;6.58;1.82;;;;;;;27.16;47.50;100426.05;1758093;80;21583;-58
2023/08/22 13:34:53;;;;;;;3.60;1.80;;;;;;;27.13;47.34;100435.06;1752735;81;21741;-60
2023/08/22 13:37:59;;;;;;;5.87;1.60;;;;;;;27.10;47.15;100442.66;1719963;82;21196;-58
2023/08/22 13:41:04;;;;;;;4.28;1.55;;;;;;;27.06;46.91;100447.99;1788318;79;21890;-59
2023/08/22 13:44:14;;;;;;;5.95;1.80;;;;;;;26.95;46.71;100443.50;1782547;79;21414;-59
2023/08/22 13:47:19;;;;;;;4.85;1.87;;;;;;;26.88;46.58;100449.95;1762303;80;21351;-59
2023/08/22 13:50:26;;;;;;;3.80;1.70;;;;;;;26.85;46.38;100458.95;1771201;80;21276;-58
2023/08/22 13:53:33;;;;;;;5.33;1.90;;;;;;;26.79;46.23;100455.86;1719711;81;21235;-59
2023/08/22 13:56:42;;;;;;;3.75;1.62;;;;;;;26.79;46.10;100476.08;1769299;79;21355;-59
2023/08/22 13:59:48;;;;;;;2.60;1.47;;;;;;;26.75;45.84;100471.58;1766437;80;21784;-56
2023/08/22 14:02:55;;;;;;;4.45;1.35;;;;;;;26.71;45.59;100473.82;1787167;79;21343;-57
2023/08/22 14:06:16;;;;;;;3.37;1.52;;;;;;;26.63;45.43;100475.19;1784262;80;21359;-57
2023/08/22 14:09:22;;;;;;;4.20;1.40;;;;;;;26.57;45.30;100468.44;1677319;85;21229;-52
2023/08/22 14:12:31;;;;;;;5.47;1.77;;;;;;;26.51;45.19;100484.45;1660687;85;21800;-52
2023/08/22 14:15:38;;;;;;;3.70;1.60;;;;;;;26.45;45.04;100464.48;1687156;84;21385;-53
2023/08/22 14:18:46;;;;;;;2.98;1.72;;;;;;;26.46;44.93;100459.16;1686969;84;21279;-54